Pawlet, Vermont
Current Conditions -  °F | °C
As of 7:35 AM on Friday 28 Nov 2014 (Local Time) from KRUT Reporting Station
Overcast Overcast  
Wind Chill: 21°   Ceiling: 2400
Heat Index: 21°   Visibility: 5mi
Dew Point: 19°   Wind: 0mph
Humidity: 93%   Direction: NA
Pressure: 30.05"   Gusts: NA
Location:  43.35°N, 73.18°W
Report Text: KRUT 281235Z 00000KT 5SM BKN024 OVC043 M06/M07 A3005 RMK AO1
Loading
Personal Weather Stations






























Interactive Weather Map New forecast layout! Learn more

10-Day Weather Forecast

Advertisements
Track Severe Weather on mobile